Time;durP1;ratioP1;P1;durP2;ratioP2;P2;SDS_P1;SDS_P2;PMS_P1;PMS_P2;Temp;Humidity;BMP_temperature;BMP_pressure;BME280_temperature;BME280_humidity;BME280_pressure;Samples;Min_cycle;Max_cycle;Signal;HPM_P1;HPM_P2
2022/01/11 00:01:06;;;;;;;5.45;4.65;;;22.90;55.10;;;;;;4941193;28;20189;-72
2022/01/11 00:03:33;;;;;;;5.97;5.18;;;23.00;55.10;;;;;;4940940;28;20206;-72
2022/01/11 00:06:16;;;;;;;6.78;5.93;;;22.90;55.00;;;;;;4957057;28;20244;-72
2022/01/11 00:08:44;;;;;;;6.78;5.38;;;23.00;55.20;;;;;;4941192;28;20205;-71
2022/01/11 00:11:10;;;;;;;6.82;5.75;;;22.90;55.10;;;;;;4974574;28;20171;-72
2022/01/11 00:13:39;;;;;;;6.75;5.82;;;22.90;55.10;;;;;;4957299;28;20185;-72
2022/01/11 00:16:07;;;;;;;5.85;5.32;;;22.90;55.10;;;;;;4948771;28;20193;-72
2022/01/11 00:18:34;;;;;;;5.95;5.38;;;22.90;55.10;;;;;;4956798;28;20214;-72
2022/01/11 00:21:00;;;;;;;6.22;5.60;;;22.90;55.20;;;;;;4974376;28;20264;-72
2022/01/11 00:25:57;;;;;;;5.78;4.95;;;22.90;55.10;;;;;;4972869;28;20177;-72
2022/01/11 00:28:26;;;;;;;4.60;4.20;;;23.00;55.20;;;;;;4943665;28;20711;-70
2022/01/11 00:31:02;;;;;;;4.72;4.30;;;22.90;55.00;;;;;;4957115;28;20185;-72
2022/01/11 00:33:37;;;;;;;5.90;4.13;;;22.90;55.10;;;;;;4973138;28;20625;-72
2022/01/11 00:36:06;;;;;;;4.70;4.30;;;23.00;55.20;;;;;;4956076;28;20193;-71
2022/01/11 00:38:36;;;;;;;5.35;4.90;;;23.00;55.20;;;;;;4940798;28;20715;-71
2022/01/11 00:41:07;;;;;;;5.28;4.78;;;23.00;55.20;;;;;;4941064;28;20257;-72
2022/01/11 00:43:35;;;;;;;5.93;5.32;;;23.00;55.20;;;;;;4972907;28;20235;-72
2022/01/11 00:46:01;;;;;;;6.18;5.07;;;23.00;55.20;;;;;;4964203;28;20205;-72
2022/01/11 00:48:27;;;;;;;5.20;4.70;;;23.00;55.20;;;;;;4956719;28;20284;-72
2022/01/11 00:50:55;;;;;;;6.00;5.40;;;22.90;55.10;;;;;;4941231;28;20545;-71
2022/01/11 00:53:22;;;;;;;6.70;4.65;;;22.90;55.20;;;;;;4974802;28;20268;-72
2022/01/11 00:55:50;;;;;;;5.03;4.60;;;23.00;55.30;;;;;;4956721;28;20182;-72
2022/01/11 00:58:18;;;;;;;5.25;4.57;;;23.00;55.30;;;;;;4941269;28;20202;-72
2022/01/11 01:00:45;;;;;;;5.22;4.72;;;23.00;55.30;;;;;;4956604;28;20186;-72
2022/01/11 01:03:11;;;;;;;4.72;3.80;;;23.00;55.30;;;;;;4956438;28;20217;-71
2022/01/11 01:05:37;;;;;;;4.85;4.35;;;23.00;55.20;;;;;;4956640;28;20189;-72
2022/01/11 01:08:05;;;;;;;4.60;4.20;;;22.90;55.10;;;;;;4940862;28;20208;-71
2022/01/11 01:10:39;;;;;;;4.85;4.03;;;22.90;55.80;;;;;;4940841;28;20273;-71
2022/01/11 01:13:13;;;;;;;4.15;3.75;;;22.90;55.20;;;;;;4940454;28;20232;-72
2022/01/11 01:15:39;;;;;;;5.10;4.15;;;22.90;55.10;;;;;;4963947;28;20178;-71
2022/01/11 01:18:22;;;;;;;4.32;3.92;;;23.00;55.30;;;;;;4995599;23;20228;-73
2022/01/11 01:20:50;;;;;;;5.65;4.20;;;23.00;55.30;;;;;;4984569;28;20182;-73
2022/01/11 01:23:17;;;;;;;5.13;4.47;;;22.90;55.20;;;;;;4972336;28;20206;-73
2022/01/11 01:25:44;;;;;;;4.90;4.40;;;22.90;55.20;;;;;;4955879;28;20185;-73
2022/01/11 01:28:12;;;;;;;4.95;4.18;;;22.90;55.20;;;;;;4947159;29;20206;-73
2022/01/11 01:30:38;;;;;;;4.72;3.97;;;22.90;55.20;;;;;;4936823;29;20564;-73
2022/01/11 01:33:05;;;;;;;4.45;4.05;;;22.90;55.20;;;;;;4936856;29;20187;-73
2022/01/11 01:35:39;;;;;;;4.75;4.35;;;22.90;55.20;;;;;;4936771;29;20190;-73
2022/01/11 01:38:09;;;;;;;4.55;3.88;;;22.90;55.20;;;;;;4936851;29;20211;-73
2022/01/11 01:40:42;;;;;;;3.58;3.28;;;23.00;55.30;;;;;;4937121;29;20186;-73
2022/01/11 01:43:11;;;;;;;4.28;3.88;;;23.00;55.30;;;;;;4936871;29;20206;-73
2022/01/11 01:45:39;;;;;;;3.78;3.25;;;22.90;55.10;;;;;;4936480;28;20194;-73
2022/01/11 01:48:07;;;;;;;3.90;3.50;;;23.00;55.20;;;;;;4943064;28;20213;-73
2022/01/11 01:50:34;;;;;;;3.78;3.47;;;22.90;55.20;;;;;;4951595;28;20567;-73
2022/01/11 01:53:05;;;;;;;3.90;3.47;;;23.00;55.20;;;;;;4975583;28;20189;-73
2022/01/11 01:55:31;;;;;;;4.35;3.60;;;22.90;55.20;;;;;;4975751;28;20174;-73
2022/01/11 01:57:57;;;;;;;5.50;3.58;;;22.90;55.20;;;;;;4959609;28;20704;-73
2022/01/11 02:00:24;;;;;;;5.95;3.90;;;23.00;55.30;;;;;;4959462;28;20185;-73
2022/01/11 02:02:50;;;;;;;4.28;3.88;;;22.90;55.20;;;;;;4975388;28;20213;-73
2022/01/11 02:05:17;;;;;;;4.13;3.72;;;23.00;55.30;;;;;;4975192;28;20276;-73
2022/01/11 02:07:43;;;;;;;3.80;3.33;;;22.90;55.20;;;;;;4991705;28;20268;-73
2022/01/11 02:10:09;;;;;;;3.70;3.40;;;22.90;55.20;;;;;;4959515;28;20178;-73
2022/01/11 02:12:35;;;;;;;4.85;3.80;;;23.00;55.30;;;;;;4959430;28;20190;-73
2022/01/11 02:15:04;;;;;;;4.03;3.63;;;23.00;55.30;;;;;;4959564;28;20182;-74
2022/01/11 02:17:33;;;;;;;4.30;3.67;;;22.90;55.20;;;;;;4959180;28;20217;-73
2022/01/11 02:20:00;;;;;;;4.53;4.13;;;22.90;55.20;;;;;;4967987;28;20257;-73
2022/01/11 02:22:26;;;;;;;4.68;3.17;;;22.90;55.10;;;;;;4975285;28;20216;-73
2022/01/11 02:24:53;;;;;;;3.72;3.42;;;22.90;55.20;;;;;;4974812;28;20182;-73
2022/01/11 02:27:21;;;;;;;3.63;3.17;;;23.00;55.30;;;;;;4959048;28;20181;-73
2022/01/11 02:29:47;;;;;;;3.17;2.92;;;22.90;55.20;;;;;;4958912;28;20170;-73
2022/01/11 02:32:14;;;;;;;3.53;3.05;;;22.90;55.10;;;;;;4958917;28;20220;-73
2022/01/11 02:34:40;;;;;;;3.65;3.22;;;23.00;55.20;;;;;;4958734;28;20177;-73
2022/01/11 02:37:16;;;;;;;3.22;2.92;;;23.00;55.20;;;;;;4974799;28;20297;-73
2022/01/11 02:39:51;;;;;;;3.97;3.60;;;23.00;55.20;;;;;;4959881;28;20188;-72
2022/01/11 02:42:24;;;;;;;3.70;3.40;;;23.00;55.20;;;;;;4959613;28;20585;-73
2022/01/11 02:44:50;;;;;;;4.90;3.83;;;22.90;55.10;;;;;;4974719;28;20185;-73
2022/01/11 02:47:20;;;;;;;3.67;3.38;;;22.90;55.10;;;;;;4958980;28;20272;-73
2022/01/11 02:49:48;;;;;;;5.20;3.75;;;22.90;55.10;;;;;;4949960;29;20269;-73
2022/01/11 02:52:20;;;;;;;3.63;3.33;;;22.90;55.10;;;;;;4956460;29;20159;-73
2022/01/11 02:54:54;;;;;;;4.15;3.03;;;23.00;55.20;;;;;;4939330;29;20179;-73
2022/01/11 02:57:21;;;;;;;3.72;3.10;;;22.90;55.10;;;;;;4938393;28;20187;-73
2022/01/11 02:59:50;;;;;;;3.75;3.35;;;23.00;55.20;;;;;;4954330;28;20189;-73
2022/01/11 03:02:18;;;;;;;5.25;3.35;;;23.00;55.20;;;;;;4958032;28;20269;-73
2022/01/11 03:04:46;;;;;;;3.20;2.90;;;22.90;55.10;;;;;;4942393;28;20273;-73
2022/01/11 03:07:19;;;;;;;2.90;2.70;;;22.90;55.10;;;;;;4956266;28;20189;-73
2022/01/11 03:10:07;;;;;;;2.95;2.75;;;23.00;55.20;;;;;;4961441;28;20190;-73
2022/01/11 03:12:44;;;;;;;6.28;2.85;;;22.90;55.10;;;;;;4955086;29;20210;-73
2022/01/11 03:15:12;;;;;;;3.58;2.90;;;22.90;55.10;;;;;;4954708;29;20190;-73
2022/01/11 03:17:39;;;;;;;3.35;3.03;;;23.00;55.20;;;;;;4954786;28;20304;-73
2022/01/11 03:20:07;;;;;;;3.72;3.15;;;23.00;55.20;;;;;;4965537;28;20189;-73
2022/01/11 03:22:34;;;;;;;3.30;3.00;;;23.00;55.20;;;;;;4974241;28;20224;-73
2022/01/11 03:25:01;;;;;;;3.63;2.90;;;23.00;55.20;;;;;;4973703;28;20610;-73
2022/01/11 03:27:32;;;;;;;3.42;3.10;;;23.00;55.20;;;;;;4958198;28;20205;-74
2022/01/11 03:29:57;;;;;;;3.65;3.35;;;23.00;55.10;;;;;;4973855;28;20260;-73
2022/01/11 03:32:23;;;;;;;4.70;3.17;;;22.90;55.10;;;;;;4957910;28;20205;-73
2022/01/11 03:34:49;;;;;;;3.13;2.83;;;23.00;55.30;;;;;;4957768;28;20208;-73
2022/01/11 03:37:17;;;;;;;3.33;3.03;;;23.00;55.30;;;;;;4973965;28;20347;-73
2022/01/11 03:39:46;;;;;;;3.22;2.60;;;23.00;55.20;;;;;;4957762;28;20185;-73
2022/01/11 03:42:11;;;;;;;2.97;2.70;;;23.00;55.20;;;;;;4973461;28;20683;-73
2022/01/11 03:44:37;;;;;;;3.42;2.78;;;22.90;55.00;;;;;;4957397;28;20325;-73
2022/01/11 03:47:04;;;;;;;2.97;2.75;;;23.00;55.70;;;;;;4973472;28;20190;-73
2022/01/11 03:49:31;;;;;;;2.97;2.72;;;23.00;55.20;;;;;;4947765;28;20335;-73
2022/01/11 03:51:56;;;;;;;3.15;2.85;;;22.90;55.00;;;;;;4973418;28;20200;-73
2022/01/11 03:54:26;;;;;;;3.47;2.67;;;23.00;55.20;;;;;;4973289;28;20186;-73
2022/01/11 03:57:11;;;;;;;3.78;2.95;;;23.00;55.20;;;;;;4959748;28;20683;-73
2022/01/11 03:59:42;;;;;;;3.20;2.72;;;23.00;55.20;;;;;;4957797;28;20251;-73
2022/01/11 04:02:08;;;;;;;3.10;2.80;;;23.00;55.20;;;;;;4938282;29;20281;-73
2022/01/11 04:04:34;;;;;;;3.13;2.78;;;23.00;55.20;;;;;;4938111;29;20281;-73
2022/01/11 04:07:00;;;;;;;3.65;3.28;;;23.00;55.20;;;;;;4937811;29;20189;-73
2022/01/11 04:09:27;;;;;;;3.03;2.83;;;23.00;55.10;;;;;;4970271;28;20210;-73
2022/01/11 04:11:53;;;;;;;3.10;2.80;;;23.00;55.10;;;;;;4965957;28;20182;-73
2022/01/11 04:14:21;;;;;;;3.08;2.78;;;22.90;55.00;;;;;;4972768;28;20189;-73
2022/01/11 04:16:48;;;;;;;2.80;2.60;;;23.00;55.10;;;;;;4972924;28;20205;-73
2022/01/11 04:19:14;;;;;;;2.83;2.63;;;23.00;55.10;;;;;;4956685;28;20228;-73
2022/01/11 04:21:40;;;;;;;2.53;2.33;;;22.90;55.10;;;;;;4972847;28;20197;-73
2022/01/11 04:24:08;;;;;;;2.50;2.30;;;23.00;55.20;;;;;;4973063;28;20215;-73
2022/01/11 04:26:34;;;;;;;2.80;2.60;;;23.00;55.10;;;;;;4972575;28;20178;-73
2022/01/11 04:29:04;;;;;;;2.83;2.10;;;22.90;55.10;;;;;;4972953;28;20555;-73
2022/01/11 04:31:31;;;;;;;2.70;2.40;;;23.00;55.20;;;;;;4956733;28;20185;-73
2022/01/11 04:33:56;;;;;;;2.58;2.38;;;23.00;55.20;;;;;;4972881;28;20196;-73
2022/01/11 04:36:23;;;;;;;2.80;2.60;;;23.00;55.10;;;;;;4956376;28;20182;-73
2022/01/11 04:38:49;;;;;;;2.45;2.08;;;23.00;55.20;;;;;;4957256;28;20289;-73
2022/01/11 04:41:16;;;;;;;2.42;2.22;;;23.00;55.20;;;;;;4971568;28;20189;-73
2022/01/11 04:43:46;;;;;;;2.63;2.42;;;23.00;55.10;;;;;;4957436;28;20280;-73
2022/01/11 04:46:13;;;;;;;2.50;2.30;;;22.90;55.10;;;;;;4972498;28;20255;-73
2022/01/11 04:48:38;;;;;;;3.35;3.00;;;22.90;55.10;;;;;;4972748;28;20241;-73
2022/01/11 04:51:06;;;;;;;2.92;2.67;;;23.00;55.20;;;;;;4973227;28;20273;-72
2022/01/11 04:53:31;;;;;;;2.85;2.65;;;23.00;55.20;;;;;;4972020;28;20201;-73
2022/01/11 04:55:58;;;;;;;3.00;2.70;;;23.00;55.20;;;;;;4972680;28;20313;-73
2022/01/11 04:58:24;;;;;;;3.08;2.78;;;23.00;55.20;;;;;;4956583;28;20205;-73
2022/01/11 05:00:50;;;;;;;3.00;2.80;;;23.00;55.20;;;;;;4956671;28;20185;-73
2022/01/11 05:03:19;;;;;;;3.00;2.70;;;23.00;55.20;;;;;;4956358;28;20256;-73
2022/01/11 05:05:48;;;;;;;2.60;2.40;;;23.00;55.20;;;;;;4956524;28;20185;-73
2022/01/11 05:08:14;;;;;;;2.85;2.65;;;22.90;55.10;;;;;;4968042;28;20297;-73
2022/01/11 05:10:44;;;;;;;2.53;2.33;;;22.90;55.20;;;;;;4950201;29;20186;-73
2022/01/11 05:13:15;;;;;;;2.50;2.20;;;23.00;55.10;;;;;;4937116;29;20666;-73
2022/01/11 05:15:43;;;;;;;2.10;2.00;;;22.90;55.10;;;;;;4937095;29;20193;-73
2022/01/11 05:18:10;;;;;;;2.33;2.13;;;22.90;55.00;;;;;;4921263;29;20800;-74
2022/01/11 05:20:38;;;;;;;2.70;2.00;;;22.90;55.00;;;;;;4937062;29;20196;-73
2022/01/11 05:23:08;;;;;;;2.50;2.30;;;23.00;55.20;;;;;;4925224;29;20210;-74
2022/01/11 05:25:34;;;;;;;2.40;2.20;;;23.00;55.00;;;;;;4940561;29;20285;-74
2022/01/11 05:28:00;;;;;;;3.08;2.20;;;23.00;55.00;;;;;;4941009;29;20210;-74
2022/01/11 05:30:30;;;;;;;2.85;2.50;;;23.00;55.10;;;;;;4925069;29;20179;-74
2022/01/11 05:32:57;;;;;;;3.20;2.75;;;22.90;55.10;;;;;;4941010;29;20174;-74
2022/01/11 05:35:26;;;;;;;2.55;2.35;;;23.00;55.10;;;;;;4940780;28;20298;-74
2022/01/11 05:37:53;;;;;;;3.00;2.70;;;23.00;55.20;;;;;;4944427;28;20221;-74
2022/01/11 05:40:21;;;;;;;3.40;3.00;;;23.00;55.20;;;;;;4967618;28;20232;-74
2022/01/11 05:42:50;;;;;;;6.32;3.42;;;23.00;55.20;;;;;;4975964;28;20268;-74
2022/01/11 05:45:18;;;;;;;3.95;3.30;;;23.00;55.30;;;;;;4959671;28;20185;-73
2022/01/11 05:47:47;;;;;;;6.07;4.95;;;23.00;55.30;;;;;;4959952;28;20321;-74
2022/01/11 05:50:15;;;;;;;5.97;3.97;;;23.00;55.40;;;;;;4959931;28;20272;-74
2022/01/11 05:52:42;;;;;;;6.40;3.10;;;23.00;55.30;;;;;;4975633;28;20190;-74
2022/01/11 05:55:11;;;;;;;2.95;2.70;;;23.00;55.30;;;;;;4959287;28;20284;-74
2022/01/11 05:57:38;;;;;;;3.45;2.70;;;22.90;55.20;;;;;;4959563;28;20710;-72
2022/01/11 06:00:09;;;;;;;4.85;2.50;;;23.00;55.30;;;;;;4976092;28;20182;-73
2022/01/11 06:02:41;;;;;;;3.60;2.70;;;23.00;55.40;;;;;;4975559;28;20263;-74
2022/01/11 06:05:10;;;;;;;3.03;2.70;;;23.00;55.20;;;;;;4975237;28;20181;-74
2022/01/11 06:07:37;;;;;;;3.97;2.60;;;23.00;55.30;;;;;;4975399;28;20275;-73
2022/01/11 06:10:04;;;;;;;3.17;2.42;;;23.00;55.30;;;;;;4964774;28;20181;-72
2022/01/11 06:12:32;;;;;;;4.57;2.22;;;23.00;55.80;;;;;;4943455;28;20186;-72
2022/01/11 06:14:58;;;;;;;2.45;2.25;;;23.00;55.30;;;;;;4943173;28;20244;-70
2022/01/11 06:17:24;;;;;;;4.10;2.63;;;22.90;54.90;;;;;;4974989;28;20244;-70
2022/01/11 06:19:50;;;;;;;4.18;3.30;;;22.90;55.10;;;;;;4958949;28;20272;-71
2022/01/11 06:22:25;;;;;;;3.83;2.90;;;22.90;55.00;;;;;;4959042;28;20184;-71
2022/01/11 06:24:51;;;;;;;4.55;3.10;;;22.80;54.80;;;;;;4958836;28;20190;-70
2022/01/11 06:27:18;;;;;;;5.20;3.35;;;22.80;54.70;;;;;;4958778;28;20193;-71
2022/01/11 06:29:45;;;;;;;3.30;2.90;;;22.80;54.80;;;;;;4958811;28;20213;-70
2022/01/11 06:32:11;;;;;;;3.67;2.70;;;22.90;54.80;;;;;;4942802;28;20263;-70
2022/01/11 06:34:38;;;;;;;3.83;2.90;;;22.80;54.70;;;;;;4942676;28;20185;-70
2022/01/11 06:37:04;;;;;;;4.30;2.60;;;22.80;54.60;;;;;;4942834;28;20563;-70
2022/01/11 06:39:36;;;;;;;3.20;2.53;;;22.90;54.70;;;;;;4944894;28;20186;-71
2022/01/11 06:42:04;;;;;;;2.50;2.30;;;22.90;54.70;;;;;;4975813;28;20189;-70
2022/01/11 06:44:31;;;;;;;3.25;2.40;;;22.90;54.60;;;;;;4943726;28;20277;-70
2022/01/11 06:46:57;;;;;;;3.80;2.92;;;22.90;54.60;;;;;;4966749;28;20178;-71
2022/01/11 06:49:24;;;;;;;2.45;2.25;;;22.90;54.60;;;;;;4958480;28;20241;-71
2022/01/11 06:51:51;;;;;;;3.33;2.40;;;22.90;54.50;;;;;;4990697;28;20185;-71
2022/01/11 06:54:18;;;;;;;3.17;2.08;;;22.90;54.60;;;;;;4974568;28;20193;-68
2022/01/11 06:56:44;;;;;;;3.00;2.35;;;22.90;54.60;;;;;;4974387;28;20189;-71
2022/01/11 06:59:12;;;;;;;2.90;2.53;;;22.90;54.50;;;;;;4974419;28;20214;-70
2022/01/11 07:01:39;;;;;;;3.08;2.78;;;22.90;54.40;;;;;;4974376;28;20224;-70
2022/01/11 07:04:13;;;;;;;3.70;2.80;;;22.90;54.50;;;;;;4959250;28;20295;-70
2022/01/11 07:06:49;;;;;;;4.00;3.08;;;22.90;54.60;;;;;;4974623;28;20178;-71
2022/01/11 07:09:14;;;;;;;4.82;2.95;;;22.90;54.50;;;;;;4974128;28;20256;-71
2022/01/11 07:11:41;;;;;;;4.55;2.95;;;22.90;54.40;;;;;;4974184;28;20184;-70
2022/01/11 07:14:07;;;;;;;3.42;2.38;;;22.90;54.40;;;;;;4970975;28;20677;-70
2022/01/11 07:16:33;;;;;;;2.63;2.35;;;22.90;54.50;;;;;;4965764;28;20182;-70
2022/01/11 07:19:00;;;;;;;3.55;2.90;;;22.90;54.40;;;;;;4990327;23;20722;-70
2022/01/11 07:21:27;;;;;;;2.30;2.20;;;22.90;54.40;;;;;;4992655;28;20242;-69
2022/01/11 07:23:52;;;;;;;2.40;2.22;;;22.90;54.40;;;;;;4976371;28;20291;-70
2022/01/11 07:26:18;;;;;;;4.25;2.08;;;22.90;54.40;;;;;;5008635;28;20186;-69
2022/01/11 07:28:46;;;;;;;3.10;2.40;;;22.90;54.40;;;;;;4962814;28;20208;-69
2022/01/11 07:31:15;;;;;;;2.50;2.20;;;22.90;54.40;;;;;;4989359;28;20185;-69
2022/01/11 07:33:46;;;;;;;3.05;2.30;;;22.80;54.30;;;;;;4973181;28;20221;-69
2022/01/11 07:36:11;;;;;;;3.33;2.10;;;22.80;54.30;;;;;;4956752;28;20264;-69
2022/01/11 07:38:39;;;;;;;3.00;2.10;;;22.90;54.40;;;;;;4956943;28;20206;-69
2022/01/11 07:41:11;;;;;;;2.28;2.08;;;22.90;54.40;;;;;;4991874;28;20689;-70
2022/01/11 07:43:57;;;;;;;2.55;2.30;;;22.90;54.30;;;;;;4972058;28;20308;-70
2022/01/11 07:46:31;;;;;;;2.55;2.35;;;22.90;54.30;;;;;;4972366;28;20217;-68
2022/01/11 07:48:59;;;;;;;4.60;3.63;;;22.90;54.50;;;;;;4972754;28;20216;-70
2022/01/11 07:51:26;;;;;;;3.60;2.80;;;22.90;54.30;;;;;;4956837;28;20186;-70
2022/01/11 07:53:53;;;;;;;3.65;2.80;;;22.90;54.30;;;;;;4956667;28;20192;-70
2022/01/11 07:56:21;;;;;;;3.42;2.55;;;22.90;54.30;;;;;;4972207;28;20194;-70
2022/01/11 07:58:47;;;;;;;2.30;2.10;;;22.90;54.40;;;;;;4972662;28;20205;-70
2022/01/11 08:01:17;;;;;;;2.40;2.20;;;22.90;54.40;;;;;;4956571;28;20182;-70
2022/01/11 08:03:46;;;;;;;2.30;2.10;;;22.90;54.30;;;;;;4956504;28;20197;-70
2022/01/11 08:06:18;;;;;;;2.17;1.98;;;22.90;54.30;;;;;;4972091;28;20186;-70
2022/01/11 08:08:48;;;;;;;3.97;2.22;;;22.90;54.30;;;;;;4972248;28;20241;-70
2022/01/11 08:11:15;;;;;;;2.83;2.20;;;22.90;54.30;;;;;;4969290;28;20189;-70
2022/01/11 08:13:42;;;;;;;2.50;2.30;;;22.90;54.30;;;;;;4955926;28;20644;-70
2022/01/11 08:16:08;;;;;;;2.38;2.17;;;22.90;54.20;;;;;;4971595;28;20702;-70
2022/01/11 08:18:34;;;;;;;2.45;2.25;;;22.90;54.30;;;;;;4971812;28;20350;-70
2022/01/11 08:21:01;;;;;;;2.45;2.25;;;22.90;54.30;;;;;;4953052;29;20187;-70
2022/01/11 08:23:27;;;;;;;2.50;2.30;;;22.90;54.30;;;;;;4937176;29;20214;-70
2022/01/11 08:25:53;;;;;;;3.38;2.50;;;22.90;54.30;;;;;;4968770;28;20238;-70
2022/01/11 08:28:20;;;;;;;2.65;2.22;;;22.90;54.50;;;;;;4953106;28;20206;-71
2022/01/11 08:30:53;;;;;;;2.70;2.50;;;22.60;48.60;;;;;;4953280;28;20555;-71
2022/01/11 08:33:19;;;;;;;3.00;2.72;;;22.50;53.80;;;;;;4937105;29;20193;-71
2022/01/11 08:35:46;;;;;;;3.00;2.80;;;22.70;54.10;;;;;;4968826;28;20190;-71
2022/01/11 08:38:15;;;;;;;2.63;2.38;;;22.70;53.80;;;;;;4952846;29;20213;-71
2022/01/11 08:40:42;;;;;;;4.35;2.67;;;22.80;53.50;;;;;;4937122;29;20190;-71
2022/01/11 08:43:10;;;;;;;2.60;2.40;;;22.80;53.50;;;;;;4968731;28;20641;-71
2022/01/11 08:45:40;;;;;;;2.60;2.20;;;22.80;53.50;;;;;;4962953;28;20181;-71
2022/01/11 08:48:11;;;;;;;2.30;2.10;;;22.80;53.50;;;;;;4970075;28;20647;-70
2022/01/11 08:50:44;;;;;;;2.83;2.33;;;22.90;54.30;;;;;;4970880;28;20208;-70
2022/01/11 08:53:11;;;;;;;2.42;2.13;;;22.90;53.70;;;;;;4970132;28;20196;-70
2022/01/11 08:55:39;;;;;;;2.15;1.95;;;22.90;53.70;;;;;;4954969;28;20693;-70
2022/01/11 08:58:05;;;;;;;2.33;2.13;;;23.00;54.00;;;;;;4971891;28;20209;-71
2022/01/11 09:00:31;;;;;;;3.78;2.25;;;23.00;53.90;;;;;;4955175;28;20207;-71
2022/01/11 09:03:04;;;;;;;3.65;2.38;;;22.90;53.70;;;;;;4956441;28;20221;-71
2022/01/11 09:05:35;;;;;;;2.97;2.38;;;23.00;53.80;;;;;;4987765;28;20193;-71
2022/01/11 09:08:05;;;;;;;2.97;2.50;;;23.00;54.00;;;;;;4955336;28;20280;-71
2022/01/11 09:10:31;;;;;;;2.35;2.13;;;23.00;54.00;;;;;;4955586;28;20212;-71
2022/01/11 09:12:57;;;;;;;3.30;2.70;;;23.00;53.80;;;;;;4955371;28;20186;-70
2022/01/11 09:15:24;;;;;;;2.33;2.13;;;23.00;53.80;;;;;;4971032;28;20276;-70
2022/01/11 09:17:51;;;;;;;2.45;2.25;;;23.00;53.70;;;;;;4971087;28;20301;-70
2022/01/11 09:20:17;;;;;;;2.53;2.33;;;23.00;53.70;;;;;;4971200;28;20193;-70
2022/01/11 09:22:44;;;;;;;2.45;2.25;;;23.00;53.70;;;;;;4955366;28;20667;-71
2022/01/11 09:25:15;;;;;;;2.30;2.10;;;23.00;53.70;;;;;;4955331;28;20244;-70
2022/01/11 09:27:49;;;;;;;2.85;2.22;;;23.00;53.70;;;;;;4971271;28;20296;-70
2022/01/11 09:30:16;;;;;;;4.22;1.88;;;23.00;53.70;;;;;;4971323;28;20209;-71
2022/01/11 09:32:44;;;;;;;2.08;1.90;;;23.00;53.70;;;;;;4956011;28;20643;-71
2022/01/11 09:35:14;;;;;;;3.47;1.90;;;23.00;53.70;;;;;;4971585;28;20575;-71
2022/01/11 09:37:42;;;;;;;2.17;1.48;;;23.00;53.70;;;;;;4955954;28;20213;-71
2022/01/11 09:40:11;;;;;;;3.33;1.60;;;23.00;53.70;;;;;;4954776;28;20239;-71
2022/01/11 09:42:40;;;;;;;2.03;1.80;;;23.00;53.70;;;;;;4952982;28;20185;-71
2022/01/11 09:45:12;;;;;;;3.22;2.08;;;23.10;53.80;;;;;;4970871;28;20193;-70
2022/01/11 09:47:43;;;;;;;2.42;2.22;;;23.10;53.80;;;;;;4971383;28;20202;-70
2022/01/11 09:50:15;;;;;;;2.58;1.98;;;23.00;53.70;;;;;;4971265;28;20186;-70
2022/01/11 09:52:47;;;;;;;2.50;2.30;;;23.00;53.70;;;;;;4971677;28;20177;-70
2022/01/11 09:55:14;;;;;;;2.03;1.83;;;23.10;53.80;;;;;;4955261;28;20186;-70
2022/01/11 09:57:41;;;;;;;2.70;1.75;;;23.10;54.00;;;;;;4971194;28;20201;-70
2022/01/11 10:00:27;;;;;;;2.05;1.80;;;23.00;54.00;;;;;;4972768;28;20283;-70
2022/01/11 10:03:06;;;;;;;1.90;1.80;;;23.10;54.10;;;;;;4957490;28;20213;-70
2022/01/11 10:05:51;;;;;;;2.28;2.00;;;23.10;54.10;;;;;;4970484;28;20187;-70
2022/01/11 10:08:31;;;;;;;2.00;1.80;;;23.10;54.00;;;;;;4973492;28;20209;-71
2022/01/11 10:10:58;;;;;;;4.30;1.95;;;23.10;54.10;;;;;;4971843;28;20181;-70
2022/01/11 10:13:39;;;;;;;4.00;1.88;;;23.10;54.10;;;;;;4974071;28;20186;-70
2022/01/11 10:16:27;;;;;;;2.25;1.80;;;23.10;53.80;;;;;;4959251;28;20204;-71
2022/01/11 10:18:58;;;;;;;2.55;1.83;;;23.00;53.70;;;;;;4957771;28;20229;-71
2022/01/11 10:21:45;;;;;;;2.65;1.90;;;23.10;53.80;;;;;;4958501;28;20185;-71
2022/01/11 10:24:25;;;;;;;2.00;1.80;;;23.00;53.70;;;;;;4970156;28;20228;-70
2022/01/11 10:26:56;;;;;;;2.15;1.63;;;23.00;53.70;;;;;;4958715;28;20181;-73
2022/01/11 10:29:40;;;;;;;2.05;1.60;;;23.00;53.50;;;;;;4974618;28;20209;-71
2022/01/11 10:32:25;;;;;;;2.45;2.22;;;23.00;53.40;;;;;;4971092;28;20197;-71
2022/01/11 10:35:19;;;;;;;2.88;1.90;;;23.00;53.30;;;;;;4973280;28;20195;-71
2022/01/11 10:37:53;;;;;;;2.10;1.75;;;23.00;53.50;;;;;;4970183;28;20221;-72
2022/01/11 10:40:22;;;;;;;1.88;1.70;;;23.00;53.40;;;;;;4965971;28;20190;-70
2022/01/11 10:42:52;;;;;;;2.08;1.88;;;23.00;53.30;;;;;;4957566;28;20251;-70
2022/01/11 10:45:25;;;;;;;2.38;1.80;;;23.00;53.20;;;;;;4957875;28;20212;-70
2022/01/11 10:47:59;;;;;;;1.90;1.80;;;23.00;53.00;;;;;;4957786;28;20217;-72
2022/01/11 10:50:37;;;;;;;5.07;1.70;;;23.00;53.00;;;;;;4957935;28;20174;-70
2022/01/11 10:53:38;;;;;;;2.65;2.25;;;23.00;53.30;;;;;;4958000;28;20190;-70
2022/01/11 10:56:06;;;;;;;2.42;1.92;;;23.00;53.70;;;;;;4950100;28;20698;-71
2022/01/11 10:58:37;;;;;;;2.13;1.70;;;23.00;53.00;;;;;;4958773;28;20672;-72
2022/01/11 11:01:07;;;;;;;2.00;1.90;;;23.00;52.80;;;;;;4958203;28;20192;-71
2022/01/11 11:03:36;;;;;;;2.30;1.90;;;23.00;52.90;;;;;;4957929;28;20209;-72
2022/01/11 11:06:11;;;;;;;1.50;1.40;;;23.00;52.80;;;;;;4957854;28;20323;-68
2022/01/11 11:08:44;;;;;;;1.75;1.65;;;23.00;52.80;;;;;;4973829;28;20201;-72
2022/01/11 11:11:33;;;;;;;1.75;1.65;;;23.00;52.60;;;;;;4967897;28;20684;-71
2022/01/11 11:14:50;;;;;;;3.78;2.22;;;23.00;52.60;;;;;;4973413;28;20288;-71
2022/01/11 11:17:36;;;;;;;1.85;1.75;;;23.00;52.50;;;;;;4957536;28;20186;-71
2022/01/11 11:20:11;;;;;;;1.60;1.50;;;23.00;52.50;;;;;;4957760;28;20209;-71
2022/01/11 11:22:37;;;;;;;1.80;1.70;;;23.00;52.40;;;;;;4973415;28;20182;-71
2022/01/11 11:25:04;;;;;;;1.80;1.70;;;23.00;52.40;;;;;;4973088;28;20205;-71
2022/01/11 11:27:31;;;;;;;1.98;1.88;;;23.00;52.30;;;;;;4973429;28;20216;-70
2022/01/11 11:29:59;;;;;;;1.70;1.60;;;23.00;52.20;;;;;;4962724;28;20189;-72
2022/01/11 11:32:26;;;;;;;1.70;1.60;;;23.00;52.10;;;;;;4974418;28;20241;-71
2022/01/11 11:34:52;;;;;;;1.70;1.60;;;23.00;52.10;;;;;;4973992;28;20181;-72
2022/01/11 11:37:25;;;;;;;1.98;1.83;;;23.00;52.10;;;;;;4971508;28;20680;-72
2022/01/11 11:39:59;;;;;;;2.08;1.80;;;23.10;52.10;;;;;;4972694;28;20186;-71
2022/01/11 11:42:29;;;;;;;2.20;2.00;;;23.00;52.00;;;;;;4972656;28;20181;-73
2022/01/11 11:44:58;;;;;;;2.28;2.05;;;23.00;52.00;;;;;;4952913;29;20214;-72
2022/01/11 11:47:35;;;;;;;2.58;1.73;;;23.00;52.00;;;;;;4965275;28;20192;-72
2022/01/11 11:50:06;;;;;;;2.13;1.70;;;23.00;51.90;;;;;;4973134;28;20177;-72
2022/01/11 11:52:42;;;;;;;1.80;1.50;;;23.00;51.80;;;;;;4972616;28;20644;-71
2022/01/11 11:55:19;;;;;;;1.55;1.45;;;23.00;52.00;;;;;;4954926;28;20193;-73
2022/01/11 11:57:47;;;;;;;2.17;1.60;;;23.00;51.80;;;;;;4938616;29;20210;-72
2022/01/11 12:00:23;;;;;;;1.40;1.30;;;23.00;51.80;;;;;;4953790;28;20214;-71
2022/01/11 12:02:58;;;;;;;1.55;1.45;;;23.00;51.70;;;;;;4968186;28;20205;-71
2022/01/11 12:05:47;;;;;;;1.67;1.55;;;23.00;51.70;;;;;;4952378;28;20200;-71
2022/01/11 12:08:43;;;;;;;2.20;1.58;;;23.00;51.60;;;;;;4952997;28;20220;-72
2022/01/11 12:11:18;;;;;;;1.25;1.23;;;23.00;51.60;;;;;;4986982;28;20273;-72
2022/01/11 12:13:53;;;;;;;1.48;1.38;;;23.00;51.70;;;;;;4958894;28;20193;-71
2022/01/11 12:16:23;;;;;;;1.60;1.50;;;23.00;51.60;;;;;;4949484;28;20215;-72
2022/01/11 12:18:58;;;;;;;1.60;1.50;;;23.00;51.50;;;;;;4972201;28;20721;-71
2022/01/11 12:21:27;;;;;;;1.65;1.55;;;23.00;51.40;;;;;;4972380;28;20192;-72
2022/01/11 12:23:59;;;;;;;1.95;1.70;;;23.00;51.40;;;;;;4973188;28;20575;-72
2022/01/11 12:26:27;;;;;;;2.00;1.75;;;23.00;51.40;;;;;;4970975;28;20193;-72
2022/01/11 12:29:03;;;;;;;1.70;1.60;;;23.00;51.30;;;;;;4970116;28;20197;-71
2022/01/11 12:31:36;;;;;;;3.60;2.58;;;23.00;51.30;;;;;;4972521;28;20189;-74
2022/01/11 12:34:05;;;;;;;1.80;1.70;;;23.00;51.30;;;;;;4973969;28;20228;-72
2022/01/11 12:36:57;;;;;;;3.10;2.80;;;23.00;51.30;;;;;;4971976;28;20205;-72
2022/01/11 12:39:28;;;;;;;1.60;1.50;;;23.00;51.30;;;;;;4972215;28;20288;-72
2022/01/11 12:41:55;;;;;;;1.73;1.63;;;23.00;51.30;;;;;;4970509;28;20196;-71
2022/01/11 12:47:09;;;;;;;1.88;1.77;;;23.00;51.20;;;;;;4968529;28;20189;-72
2022/01/11 12:49:44;;;;;;;1.85;1.75;;;23.00;51.20;;;;;;4971794;28;20188;-71
2022/01/11 12:52:17;;;;;;;1.85;1.75;;;23.00;51.20;;;;;;4955519;28;20189;-71
2022/01/11 12:54:49;;;;;;;1.73;1.63;;;23.00;51.20;;;;;;4970708;28;20264;-72
2022/01/11 12:57:18;;;;;;;1.67;1.58;;;23.00;51.10;;;;;;4987691;28;20755;-71
2022/01/11 12:59:52;;;;;;;1.75;1.65;;;23.00;51.10;;;;;;4971755;28;20190;-71
2022/01/11 13:02:23;;;;;;;2.08;1.88;;;22.90;51.60;;;;;;4987120;28;20197;-71
2022/01/11 13:04:56;;;;;;;2.13;1.60;;;22.90;51.00;;;;;;4970075;28;20287;-72
2022/01/11 13:07:30;;;;;;;1.52;1.42;;;22.90;51.00;;;;;;4976885;28;20183;-72